AUS weather

Austin Bergstrom International Airport
Austin, Texas, United States

Public forecast

Using degrees Fahrenheit for public forecast. Weather courtesy of forecast.io.

Current aviation weather report (METAR) for Austin Bergstrom International Airport

Retrieved 2019/11/20 04:53 UTC (50 minutes ago):

KAUS 200453Z 16006KT 10SM SCT018 BKN025 17/15 A2996 RMK AO2 SLP140 T01720150

Aviation forecast (TAF) for Austin Bergstrom International Airport

Retrieved 2019-11-20 00:22 UTC (5 hours ago):

TAF KAUS 192320Z 2000/2106 18008KT P6SM BKN250 FM200800 17005KT P6SM BKN015 FM201000 17015KT 2SM BR OVC006 FM201400 16008KT 5SM BR OVC008 FM201800 17018KT P6SM BKN040